createdAt,value
2023-03-04T00:02:22.224Z,14.02
2023-03-04T00:04:49.060Z,14.07
2023-03-04T00:07:17.158Z,18.15
2023-03-04T00:09:46.021Z,15.40
2023-03-04T00:12:13.866Z,17.33
2023-03-04T00:14:41.398Z,17.52
2023-03-04T00:17:09.333Z,15.93
2023-03-04T00:19:36.321Z,18.27
2023-03-04T00:22:04.242Z,15.50
2023-03-04T00:24:32.398Z,18.10
2023-03-04T00:26:59.815Z,14.50
2023-03-04T00:29:26.912Z,18.73
2023-03-04T00:31:53.988Z,21.75
2023-03-04T00:34:21.697Z,19.40
2023-03-04T00:36:49.014Z,21.65
2023-03-04T00:39:18.275Z,19.73
2023-03-04T00:41:45.241Z,17.77
2023-03-04T00:44:12.412Z,18.10
2023-03-04T00:46:39.204Z,15.73
2023-03-04T00:49:06.167Z,16.13
2023-03-04T00:51:33.218Z,21.60
2023-03-04T00:54:00.972Z,25.38
2023-03-04T00:56:28.599Z,26.70
2023-03-04T00:58:59.097Z,32.63
2023-03-04T01:01:26.130Z,24.38
2023-03-04T01:03:53.044Z,27.45
2023-03-04T01:06:20.012Z,23.38
2023-03-04T01:08:46.842Z,25.23
2023-03-04T01:11:13.632Z,25.88
2023-03-04T01:13:40.904Z,22.35
2023-03-04T01:16:08.314Z,24.42
2023-03-04T01:18:35.072Z,26.90
2023-03-04T01:21:02.330Z,31.30
2023-03-04T01:23:33.168Z,29.17
2023-03-04T01:26:00.326Z,26.10
2023-03-04T01:28:27.207Z,27.48
2023-03-04T01:30:54.056Z,23.55
2023-03-04T01:33:21.062Z,22.63
2023-03-04T01:35:47.921Z,25.35
2023-03-04T01:38:15.148Z,22.60
2023-03-04T01:40:42.043Z,23.38
2023-03-04T01:43:17.924Z,19.77
2023-03-04T01:45:44.811Z,19.77
2023-03-04T01:48:14.243Z,21.90
2023-03-04T01:50:41.536Z,15.45
2023-03-04T01:53:33.832Z,17.67
2023-03-04T01:56:23.610Z,19.58
2023-03-04T01:59:18.419Z,14.88
2023-03-04T02:01:54.640Z,13.38
2023-03-04T02:04:28.202Z,12.13
2023-03-04T02:06:56.390Z,12.38
2023-03-04T02:09:23.725Z,14.75
2023-03-04T02:11:51.878Z,14.88
2023-03-04T02:14:20.489Z,15.18
2023-03-04T02:16:49.048Z,15.48
2023-03-04T02:19:44.758Z,13.85
2023-03-04T02:22:11.746Z,11.85
2023-03-04T02:24:57.211Z,16.65
2023-03-04T02:27:24.439Z,17.98
2023-03-04T02:29:51.312Z,16.60
2023-03-04T02:32:18.240Z,15.50
2023-03-04T02:34:50.642Z,16.92
2023-03-04T02:37:19.012Z,14.40
2023-03-04T02:39:48.247Z,14.90
2023-03-04T02:42:16.165Z,15.75
2023-03-04T02:44:47.730Z,15.80
2023-03-04T02:47:20.449Z,17.25
2023-03-04T02:49:47.585Z,16.83
2023-03-04T02:52:19.718Z,17.38
2023-03-04T02:54:46.583Z,13.43
2023-03-04T02:57:15.092Z,16.65
2023-03-04T02:59:42.607Z,17.55
2023-03-04T03:02:10.603Z,16.75
2023-03-04T03:04:40.044Z,14.82
2023-03-04T03:07:07.578Z,14.52
2023-03-04T03:09:34.788Z,16.27
2023-03-04T03:12:01.635Z,16.23
2023-03-04T03:14:28.831Z,15.32
2023-03-04T03:16:56.071Z,14.10
2023-03-04T03:19:22.984Z,14.18
2023-03-04T03:21:50.414Z,11.88
2023-03-04T03:24:17.675Z,13.23
2023-03-04T03:26:44.471Z,12.40
2023-03-04T03:29:11.377Z,11.90
2023-03-04T03:31:38.237Z,11.38
2023-03-04T03:34:05.399Z,12.45
2023-03-04T03:36:32.358Z,12.02
2023-03-04T03:38:59.267Z,9.93
2023-03-04T03:41:26.453Z,9.15
2023-03-04T03:43:53.616Z,10.45
2023-03-04T03:46:20.455Z,16.33
2023-03-04T03:48:47.303Z,11.13
2023-03-04T03:51:14.281Z,12.55
2023-03-04T03:53:41.488Z,10.77
2023-03-04T03:56:08.713Z,9.70
2023-03-04T03:58:35.486Z,12.02
2023-03-04T04:01:02.324Z,11.95
2023-03-04T04:03:29.568Z,10.32
2023-03-04T04:05:56.410Z,9.80
2023-03-04T04:08:23.628Z,10.63
2023-03-04T04:10:50.470Z,10.65
2023-03-04T04:13:17.750Z,9.63
2023-03-04T04:15:44.618Z,9.85
2023-03-04T04:18:11.461Z,9.48
2023-03-04T04:20:38.241Z,9.88
2023-03-04T04:23:05.203Z,10.38
2023-03-04T04:25:32.103Z,8.35
2023-03-04T04:27:59.644Z,11.27
2023-03-04T04:30:26.933Z,11.68
2023-03-04T04:32:53.770Z,15.10
2023-03-04T04:35:20.897Z,10.52
2023-03-04T04:37:48.484Z,11.77
2023-03-04T04:40:16.706Z,10.95
2023-03-04T04:42:43.546Z,12.98
2023-03-04T04:45:11.027Z,13.23
2023-03-04T04:47:37.888Z,12.32
2023-03-04T04:50:05.244Z,11.25
2023-03-04T04:52:32.151Z,10.95
2023-03-04T04:54:59.045Z,9.95
2023-03-04T04:57:26.013Z,11.73
2023-03-04T04:59:52.916Z,11.13
2023-03-04T05:02:19.793Z,8.48
2023-03-04T05:04:46.970Z,10.15
2023-03-04T05:07:13.846Z,11.52
2023-03-04T05:09:43.522Z,11.75
2023-03-04T05:12:10.760Z,12.02
2023-03-04T05:14:37.663Z,11.45
2023-03-04T05:17:04.606Z,12.70
2023-03-04T05:19:31.467Z,9.98
2023-03-04T05:21:58.357Z,11.70
2023-03-04T05:24:25.749Z,9.00
2023-03-04T05:26:52.673Z,8.23
2023-03-04T05:29:19.491Z,9.70
2023-03-04T05:31:46.332Z,11.40
2023-03-04T05:34:13.615Z,6.78
2023-03-04T05:36:40.467Z,8.95
2023-03-04T05:39:07.540Z,7.47
2023-03-04T05:41:34.303Z,9.63
2023-03-04T05:44:01.199Z,9.65
2023-03-04T05:46:28.541Z,13.77
2023-03-04T05:48:55.867Z,15.60
2023-03-04T05:51:23.677Z,16.60
2023-03-04T05:53:51.292Z,17.08
2023-03-04T05:56:20.093Z,14.88
2023-03-04T05:58:47.735Z,19.08
2023-03-04T06:01:14.892Z,17.60
2023-03-04T06:03:43.621Z,16.88
2023-03-04T06:06:10.856Z,15.52
2023-03-04T06:08:37.705Z,17.00
2023-03-04T06:11:05.741Z,17.30
2023-03-04T06:13:34.143Z,20.45
2023-03-04T06:16:01.981Z,17.10
2023-03-04T06:18:29.651Z,19.27
2023-03-04T06:21:01.622Z,18.30
2023-03-04T06:23:29.242Z,11.00
2023-03-04T06:25:58.717Z,17.88
2023-03-04T06:28:26.028Z,11.77
2023-03-04T06:30:54.686Z,9.93
2023-03-04T06:33:22.060Z,9.52
2023-03-04T06:35:49.130Z,10.98
2023-03-04T06:38:16.088Z,13.57
2023-03-04T06:40:43.015Z,11.20
2023-03-04T06:43:09.977Z,12.88
2023-03-04T06:45:39.396Z,13.82
2023-03-04T06:48:06.735Z,13.32
2023-03-04T06:50:33.571Z,11.95
2023-03-04T06:53:00.871Z,11.57
2023-03-04T06:55:27.742Z,13.82
2023-03-04T06:57:54.559Z,12.88
2023-03-04T07:00:24.080Z,12.20
2023-03-04T07:02:53.346Z,11.25
2023-03-04T07:05:22.171Z,11.80
2023-03-04T07:07:49.815Z,11.40
2023-03-04T07:10:18.574Z,11.85
2023-03-04T07:12:45.593Z,11.50
2023-03-04T07:15:12.470Z,11.95
2023-03-04T07:17:39.835Z,12.85
2023-03-04T07:20:07.444Z,11.90
2023-03-04T07:22:34.225Z,11.18
2023-03-04T07:25:01.113Z,12.82
2023-03-04T07:27:27.951Z,11.98
2023-03-04T07:29:54.865Z,14.25
2023-03-04T07:32:22.232Z,15.30
2023-03-04T07:34:49.534Z,14.65
2023-03-04T07:37:16.442Z,14.68
2023-03-04T07:39:43.636Z,13.43
2023-03-04T07:42:10.922Z,16.88
2023-03-04T07:44:37.704Z,14.63
2023-03-04T07:47:04.961Z,15.63
2023-03-04T07:49:32.212Z,15.68
2023-03-04T07:52:02.629Z,11.60
2023-03-04T07:54:29.506Z,13.85
2023-03-04T07:56:56.405Z,21.00
2023-03-04T07:59:23.665Z,17.58
2023-03-04T08:01:51.413Z,19.95
2023-03-04T08:04:18.274Z,12.57
2023-03-04T08:06:45.210Z,14.45
2023-03-04T08:09:13.739Z,13.95
2023-03-04T08:11:41.391Z,13.20
2023-03-04T08:14:09.343Z,12.48
2023-03-04T08:16:36.685Z,11.20
2023-03-04T08:19:04.756Z,14.38
2023-03-04T08:21:32.447Z,14.70
2023-03-04T08:24:02.510Z,11.75
2023-03-04T08:26:33.959Z,14.20
2023-03-04T08:29:02.412Z,13.82
2023-03-04T08:31:29.595Z,11.70
2023-03-04T08:33:56.670Z,14.23
2023-03-04T08:36:23.613Z,10.43
2023-03-04T08:38:51.012Z,17.13
2023-03-04T08:41:20.456Z,14.00
2023-03-04T08:43:47.341Z,12.48
2023-03-04T08:46:14.355Z,12.25
2023-03-04T08:48:41.409Z,14.65
2023-03-04T08:51:10.895Z,15.95
2023-03-04T08:53:38.461Z,16.98
2023-03-04T08:56:06.289Z,15.43
2023-03-04T08:58:33.090Z,17.50
2023-03-04T09:01:04.241Z,11.50
2023-03-04T09:03:31.182Z,17.85
2023-03-04T09:05:58.253Z,12.90
2023-03-04T09:08:25.397Z,12.82
2023-03-04T09:10:54.628Z,12.63
2023-03-04T09:13:26.294Z,13.38
2023-03-04T09:15:54.118Z,16.15
2023-03-04T09:18:23.889Z,13.32
2023-03-04T09:20:51.325Z,13.75
2023-03-04T09:23:19.126Z,12.77
2023-03-04T09:25:47.511Z,15.25
2023-03-04T09:28:16.171Z,13.57
2023-03-04T09:30:44.125Z,15.73
2023-03-04T09:33:11.327Z,16.00
2023-03-04T09:35:38.335Z,14.50
2023-03-04T09:38:05.996Z,14.20
2023-03-04T09:40:39.919Z,11.85
2023-03-04T09:43:12.585Z,21.30
2023-03-04T09:45:48.644Z,15.77
2023-03-04T09:48:19.257Z,18.20
2023-03-04T09:51:19.389Z,16.05
2023-03-04T09:54:04.124Z,19.77
2023-03-04T09:56:33.760Z,16.05
2023-03-04T09:59:20.134Z,16.55
2023-03-04T10:01:55.003Z,14.10
2023-03-04T10:04:47.296Z,16.75
2023-03-04T10:07:26.311Z,16.70
2023-03-04T10:10:05.256Z,21.08
2023-03-04T10:12:36.196Z,17.85
2023-03-04T10:15:23.843Z,16.85
2023-03-04T10:17:58.484Z,18.00
2023-03-04T10:20:33.846Z,18.30
2023-03-04T10:23:11.628Z,17.40
2023-03-04T10:25:43.516Z,16.67
2023-03-04T10:28:18.329Z,16.67
2023-03-04T10:41:36.558Z,19.02
2023-03-04T10:44:05.064Z,16.25
2023-03-04T10:46:32.881Z,14.60
2023-03-04T10:49:00.083Z,17.80
2023-03-04T10:51:29.451Z,15.98
2023-03-04T10:54:11.117Z,13.98
2023-03-04T10:56:45.826Z,16.90
2023-03-04T10:59:39.228Z,21.70
2023-03-04T11:02:34.601Z,14.23
2023-03-04T11:05:07.799Z,18.88
2023-03-04T11:07:54.993Z,18.35
2023-03-04T11:10:26.081Z,17.33
2023-03-04T11:13:00.420Z,41.00
2023-03-04T11:15:49.430Z,18.65
2023-03-04T11:18:19.174Z,18.17
2023-03-04T11:20:49.950Z,13.88
2023-03-04T11:23:32.173Z,11.27
2023-03-04T11:26:12.009Z,13.43
2023-03-04T11:28:52.548Z,12.60
2023-03-04T11:31:43.012Z,9.50
2023-03-04T11:34:31.592Z,17.90
2023-03-04T11:37:21.636Z,11.27
2023-03-04T11:39:54.815Z,11.63
2023-03-04T11:42:40.381Z,12.88
2023-03-04T11:45:29.261Z,12.73
2023-03-04T11:48:13.696Z,12.13
2023-03-04T11:50:47.372Z,13.00
2023-03-04T11:53:26.500Z,14.15
2023-03-04T11:56:21.348Z,13.43
2023-03-04T11:58:50.925Z,10.80
2023-03-04T12:01:47.221Z,12.05
2023-03-04T12:04:50.890Z,11.48
2023-03-04T12:07:43.141Z,16.90
2023-03-04T12:10:28.892Z,12.98
2023-03-04T12:13:35.547Z,10.68
2023-03-04T12:16:31.522Z,15.68
2023-03-04T12:19:13.398Z,11.13
2023-03-04T12:21:43.371Z,13.57
2023-03-04T12:24:57.911Z,13.98
2023-03-04T12:27:51.258Z,14.52
2023-03-04T12:31:04.440Z,16.20
2023-03-04T12:33:53.218Z,22.60
2023-03-04T12:36:38.455Z,12.50
2023-03-04T12:39:10.082Z,11.60
2023-03-04T12:42:07.163Z,12.95
2023-03-04T12:44:46.938Z,17.25
2023-03-04T12:47:22.503Z,19.25
2023-03-04T12:50:33.829Z,17.58
2023-03-04T12:53:29.889Z,11.25
2023-03-04T12:55:59.185Z,14.18
2023-03-04T12:58:29.555Z,17.20
2023-03-04T13:01:24.520Z,23.25
2023-03-04T13:04:06.635Z,21.23
2023-03-04T13:06:54.836Z,10.05
2023-03-04T13:09:32.299Z,12.45
2023-03-04T13:12:22.216Z,15.85
2023-03-04T13:15:07.827Z,13.07
2023-03-04T13:17:42.763Z,14.57
2023-03-04T13:20:34.986Z,12.10
2023-03-04T13:23:01.891Z,9.35
2023-03-04T13:25:36.576Z,11.25
2023-03-04T13:28:09.495Z,9.93
2023-03-04T13:30:38.080Z,10.38
2023-03-04T13:33:12.758Z,9.73
2023-03-04T13:36:04.434Z,9.73
2023-03-04T13:38:31.317Z,11.45
2023-03-04T13:41:20.143Z,10.88
2023-03-04T13:43:54.793Z,10.73
2023-03-04T13:46:23.685Z,11.23
2023-03-04T13:48:51.112Z,13.27
2023-03-04T13:51:30.359Z,14.63
2023-03-04T13:54:00.351Z,13.18
2023-03-04T13:56:37.687Z,11.25
2023-03-04T13:59:24.108Z,7.93
2023-03-04T14:01:55.640Z,10.18
2023-03-04T14:04:54.308Z,9.35
2023-03-04T14:07:28.702Z,9.43
2023-03-04T14:10:20.682Z,7.63
2023-03-04T14:12:56.610Z,8.25
2023-03-04T14:15:31.081Z,9.02
2023-03-04T14:18:04.279Z,7.72
2023-03-04T14:20:38.965Z,9.95
2023-03-04T14:23:26.426Z,7.80
2023-03-04T14:26:11.424Z,12.52
2023-03-04T14:28:45.896Z,9.15
2023-03-04T14:31:19.404Z,7.18
2023-03-04T14:33:52.259Z,9.27
2023-03-04T14:36:23.565Z,13.60
2023-03-04T14:38:55.313Z,8.13
2023-03-04T14:41:34.795Z,9.15
2023-03-04T14:44:36.171Z,6.90
2023-03-04T14:47:19.805Z,9.80
2023-03-04T14:49:47.080Z,9.98
2023-03-04T14:52:38.696Z,11.48
2023-03-04T14:55:14.861Z,10.10
2023-03-04T14:57:43.346Z,11.85
2023-03-04T15:00:22.818Z,9.32
2023-03-04T15:03:04.801Z,10.23
2023-03-04T15:05:34.632Z,8.68
2023-03-04T15:08:17.103Z,8.43
2023-03-04T15:11:00.887Z,7.45
2023-03-04T15:13:44.443Z,9.10
2023-03-04T15:16:16.937Z,7.90
2023-03-04T15:19:08.941Z,6.80
2023-03-04T15:21:40.887Z,11.40
2023-03-04T15:24:15.336Z,12.68
2023-03-04T15:26:44.006Z,8.40
2023-03-04T15:29:18.034Z,7.30
2023-03-04T15:31:48.317Z,11.85
2023-03-04T15:34:17.429Z,10.30
2023-03-04T15:36:50.354Z,9.77
2023-03-04T15:39:19.413Z,9.18
2023-03-04T15:41:47.000Z,10.25
2023-03-04T15:44:14.089Z,10.65
2023-03-04T15:46:41.107Z,9.98
2023-03-04T15:49:08.122Z,9.15
2023-03-04T15:51:35.593Z,10.00
2023-03-04T15:54:03.354Z,9.25
2023-03-04T15:56:32.703Z,9.82
2023-03-04T15:59:09.981Z,12.82
2023-03-04T16:01:36.899Z,8.45
2023-03-04T16:04:03.823Z,11.25
2023-03-04T16:06:32.749Z,11.05
2023-03-04T16:09:00.152Z,12.95
2023-03-04T16:11:30.377Z,13.45
2023-03-04T16:13:57.398Z,14.95
2023-03-04T16:16:24.827Z,11.98
2023-03-04T16:18:51.674Z,13.25
2023-03-04T16:21:23.279Z,13.95
2023-03-04T16:23:52.165Z,17.63
2023-03-04T16:26:21.776Z,13.43
2023-03-04T16:28:49.913Z,15.40
2023-03-04T16:31:17.926Z,16.25
2023-03-04T16:33:45.176Z,23.73
2023-03-04T16:36:19.732Z,17.38
2023-03-04T16:38:47.298Z,19.65
2023-03-04T16:41:16.215Z,23.60
2023-03-04T16:43:43.552Z,27.60
2023-03-04T16:46:14.082Z,20.98
2023-03-04T16:48:41.160Z,21.75
2023-03-04T16:51:17.785Z,27.30
2023-03-04T16:53:49.327Z,25.30
2023-03-04T16:56:17.923Z,27.90
2023-03-04T16:58:45.431Z,28.88
2023-03-04T17:01:38.976Z,27.42
2023-03-04T17:04:05.839Z,24.00
2023-03-04T17:06:34.424Z,27.83
2023-03-04T17:09:01.641Z,29.85
2023-03-04T17:11:28.906Z,29.55
2023-03-04T17:13:56.078Z,26.88
2023-03-04T17:16:23.205Z,35.15
2023-03-04T17:18:50.396Z,33.50
2023-03-04T17:21:20.626Z,32.60
2023-03-04T17:23:47.686Z,31.73
2023-03-04T17:26:15.692Z,28.98
2023-03-04T17:28:43.056Z,32.42
2023-03-04T17:31:15.011Z,38.35
2023-03-04T17:33:43.898Z,29.20
2023-03-04T17:36:12.819Z,31.42
2023-03-04T17:38:39.942Z,39.35
2023-03-04T17:41:10.473Z,54.72
2023-03-04T17:43:37.269Z,47.00
2023-03-04T17:46:09.269Z,37.58
2023-03-04T17:48:36.550Z,43.47
2023-03-04T17:51:04.341Z,38.53
2023-03-04T17:53:31.483Z,40.03
2023-03-04T17:56:00.470Z,40.15
2023-03-04T17:58:28.761Z,33.90
2023-03-04T18:01:06.323Z,42.40
2023-03-04T18:03:33.495Z,38.08
2023-03-04T18:06:00.366Z,43.47
2023-03-04T18:08:27.187Z,40.55
2023-03-04T18:10:54.060Z,39.50
2023-03-04T18:13:20.917Z,43.28
2023-03-04T18:15:47.890Z,45.83
2023-03-04T18:18:14.790Z,47.55
2023-03-04T18:20:41.683Z,45.63
2023-03-04T18:23:09.236Z,49.22
2023-03-04T18:25:36.411Z,50.20
2023-03-04T18:28:04.324Z,50.45
2023-03-04T18:30:31.812Z,42.50
2023-03-04T18:33:02.883Z,48.47
2023-03-04T18:35:29.896Z,46.53
2023-03-04T18:37:57.119Z,51.58
2023-03-04T18:40:24.529Z,47.10
2023-03-04T18:42:51.812Z,47.47
2023-03-04T18:45:18.805Z,48.08
2023-03-04T18:47:49.362Z,47.90
2023-03-04T18:50:17.297Z,49.55
2023-03-04T18:52:44.673Z,41.72
2023-03-04T18:55:11.601Z,48.05
2023-03-04T18:57:45.889Z,42.25
2023-03-04T19:00:17.050Z,42.90
2023-03-04T19:02:52.537Z,35.53
2023-03-04T19:05:23.116Z,32.67
2023-03-04T19:07:50.612Z,43.45
2023-03-04T19:10:18.522Z,38.15
2023-03-04T19:12:45.632Z,39.00
2023-03-04T19:15:13.067Z,39.83
2023-03-04T19:17:40.742Z,65.05
2023-03-04T19:20:10.090Z,68.10
2023-03-04T19:22:37.069Z,67.28
2023-03-04T19:25:05.291Z,67.20
2023-03-04T19:27:32.174Z,73.88
2023-03-04T19:29:59.408Z,57.63
2023-03-04T19:32:26.329Z,52.58
2023-03-04T19:34:53.925Z,52.10
2023-03-04T19:37:20.783Z,53.78
2023-03-04T19:39:49.271Z,53.72
2023-03-04T19:42:16.324Z,53.63
2023-03-04T19:44:44.856Z,70.70
2023-03-04T19:47:12.377Z,70.43
2023-03-04T19:49:39.666Z,71.30
2023-03-04T19:52:06.869Z,85.45
2023-03-04T19:54:34.230Z,72.60
2023-03-04T19:57:01.463Z,57.78
2023-03-04T19:59:28.221Z,63.75
2023-03-04T20:01:55.519Z,60.38
2023-03-04T20:04:22.597Z,49.83
2023-03-04T20:06:51.283Z,43.75
2023-03-04T20:09:19.347Z,45.58
2023-03-04T20:11:57.749Z,42.05
2023-03-04T20:14:27.675Z,44.55
2023-03-04T20:16:58.696Z,45.20
2023-03-04T20:19:25.771Z,49.60
2023-03-04T20:21:52.562Z,35.65
2023-03-04T20:24:22.960Z,47.03
2023-03-04T20:26:50.428Z,36.80
2023-03-04T20:29:18.067Z,39.08
2023-03-04T20:31:46.462Z,32.15
2023-03-04T20:34:14.235Z,32.55
2023-03-04T20:36:41.165Z,34.45
2023-03-04T20:39:27.006Z,33.78
2023-03-04T20:41:56.193Z,34.88
2023-03-04T20:44:23.483Z,39.25
2023-03-04T20:46:50.262Z,44.00
2023-03-04T20:49:22.283Z,50.47
2023-03-04T20:51:50.043Z,47.28
2023-03-04T20:54:16.954Z,52.28
2023-03-04T20:56:43.835Z,56.70
2023-03-04T20:59:11.918Z,52.05
2023-03-04T21:01:41.018Z,65.18
2023-03-04T21:04:08.698Z,54.58
2023-03-04T21:06:38.237Z,49.72
2023-03-04T21:09:08.544Z,59.25
2023-03-04T21:11:40.267Z,56.22
2023-03-04T21:14:13.643Z,58.67
2023-03-04T21:16:41.491Z,78.55
2023-03-04T21:19:15.520Z,78.13
2023-03-04T21:21:42.391Z,79.72
2023-03-04T21:24:14.642Z,60.83
2023-03-04T21:26:45.161Z,46.80
2023-03-04T21:29:12.796Z,46.90
2023-03-04T21:31:43.546Z,41.40
2023-03-04T21:34:30.422Z,38.35
2023-03-04T21:36:57.346Z,35.83
2023-03-04T21:39:24.878Z,38.53
2023-03-04T21:41:52.830Z,35.08
2023-03-04T21:44:33.241Z,32.70
2023-03-04T21:47:01.157Z,34.42
2023-03-04T21:49:29.025Z,34.13
2023-03-04T21:51:56.213Z,38.20
2023-03-04T21:54:23.646Z,32.95
2023-03-04T21:56:50.840Z,42.25
2023-03-04T21:59:17.899Z,35.65
2023-03-04T22:01:45.274Z,39.35
2023-03-04T22:04:12.399Z,31.83
2023-03-04T22:06:40.169Z,31.95
2023-03-04T22:09:08.150Z,35.40
2023-03-04T22:11:35.454Z,34.03
2023-03-04T22:14:03.324Z,35.47
2023-03-04T22:16:31.735Z,33.35
2023-03-04T22:18:59.512Z,32.03
2023-03-04T22:21:26.787Z,32.65
2023-03-04T22:23:54.112Z,30.35
2023-03-04T22:26:31.825Z,31.55
2023-03-04T22:29:01.602Z,27.83
2023-03-04T22:31:32.379Z,26.70
2023-03-04T22:34:21.448Z,28.73
2023-03-04T22:36:49.395Z,32.88
2023-03-04T22:39:20.850Z,29.05
2023-03-04T22:41:47.824Z,25.83
2023-03-04T22:44:14.745Z,27.70
2023-03-04T22:46:42.284Z,37.25
2023-03-04T22:49:11.823Z,28.05
2023-03-04T22:51:43.341Z,28.65
2023-03-04T22:54:15.416Z,33.25
2023-03-04T22:56:42.389Z,28.33
2023-03-04T22:59:09.291Z,29.42
2023-03-04T23:01:36.241Z,29.60
2023-03-04T23:04:03.470Z,25.65
2023-03-04T23:06:31.674Z,31.33
2023-03-04T23:08:59.540Z,26.92
2023-03-04T23:11:32.498Z,27.65
2023-03-04T23:14:02.239Z,25.90
2023-03-04T23:16:29.680Z,20.95
2023-03-04T23:18:59.441Z,24.52
2023-03-04T23:21:28.410Z,24.38
2023-03-04T23:23:56.019Z,23.20
2023-03-04T23:26:26.896Z,26.52
2023-03-04T23:28:56.912Z,23.80
2023-03-04T23:31:24.110Z,29.88
2023-03-04T23:33:51.025Z,28.58
2023-03-04T23:36:19.204Z,25.30
2023-03-04T23:38:48.464Z,25.48
2023-03-04T23:41:21.330Z,31.23
2023-03-04T23:43:49.359Z,24.65
2023-03-04T23:46:16.282Z,25.05
2023-03-04T23:48:46.491Z,25.10
2023-03-04T23:51:19.410Z,27.13
2023-03-04T23:53:47.029Z,24.88
2023-03-04T23:56:16.372Z,30.02
2023-03-04T23:58:43.872Z,22.02
